sensor_id;sensor_type;location;lat;lon;timestamp;P1;durP1;ratioP1;P2;durP2;ratioP2
2488;SDS011;1255;48.716;9.124;2022-11-15T00:00:27;2.45;;;2.25;;
2488;SDS011;1255;48.716;9.124;2022-11-15T00:02:54;3.60;;;2.30;;
2488;SDS011;1255;48.716;9.124;2022-11-15T00:05:21;3.40;;;2.25;;
2488;SDS011;1255;48.716;9.124;2022-11-15T00:07:48;3.25;;;2.72;;
2488;SDS011;1255;48.716;9.124;2022-11-15T00:10:15;3.25;;;2.45;;
2488;SDS011;1255;48.716;9.124;2022-11-15T00:12:43;4.15;;;2.05;;
2488;SDS011;1255;48.716;9.124;2022-11-15T00:15:10;2.60;;;2.30;;
2488;SDS011;1255;48.716;9.124;2022-11-15T00:17:36;2.17;;;1.95;;
2488;SDS011;1255;48.716;9.124;2022-11-15T00:20:03;2.25;;;2.05;;
2488;SDS011;1255;48.716;9.124;2022-11-15T00:22:31;2.22;;;2.00;;
2488;SDS011;1255;48.716;9.124;2022-11-15T00:24:58;2.20;;;2.00;;
2488;SDS011;1255;48.716;9.124;2022-11-15T00:27:24;2.60;;;1.90;;
2488;SDS011;1255;48.716;9.124;2022-11-15T00:29:53;2.95;;;2.67;;
2488;SDS011;1255;48.716;9.124;2022-11-15T00:32:20;2.22;;;1.77;;
2488;SDS011;1255;48.716;9.124;2022-11-15T00:34:47;2.35;;;1.70;;
2488;SDS011;1255;48.716;9.124;2022-11-15T00:37:13;2.83;;;2.40;;
2488;SDS011;1255;48.716;9.124;2022-11-15T00:39:40;3.38;;;2.20;;
2488;SDS011;1255;48.716;9.124;2022-11-15T00:42:07;2.15;;;1.95;;
2488;SDS011;1255;48.716;9.124;2022-11-15T00:44:34;1.95;;;1.67;;
2488;SDS011;1255;48.716;9.124;2022-11-15T00:47:02;1.92;;;1.60;;
2488;SDS011;1255;48.716;9.124;2022-11-15T00:49:29;2.20;;;2.00;;
2488;SDS011;1255;48.716;9.124;2022-11-15T00:51:55;2.10;;;1.90;;
2488;SDS011;1255;48.716;9.124;2022-11-15T00:54:22;1.98;;;1.80;;
2488;SDS011;1255;48.716;9.124;2022-11-15T00:56:49;3.95;;;2.00;;
2488;SDS011;1255;48.716;9.124;2022-11-15T00:59:15;2.83;;;2.40;;
2488;SDS011;1255;48.716;9.124;2022-11-15T01:01:42;3.15;;;1.75;;
2488;SDS011;1255;48.716;9.124;2022-11-15T01:04:10;2.97;;;1.90;;
2488;SDS011;1255;48.716;9.124;2022-11-15T01:06:37;2.47;;;1.92;;
2488;SDS011;1255;48.716;9.124;2022-11-15T01:09:04;2.83;;;2.17;;
2488;SDS011;1255;48.716;9.124;2022-11-15T01:11:30;3.33;;;2.10;;
2488;SDS011;1255;48.716;9.124;2022-11-15T01:13:57;1.85;;;1.75;;
2488;SDS011;1255;48.716;9.124;2022-11-15T01:16:24;2.30;;;1.98;;
2488;SDS011;1255;48.716;9.124;2022-11-15T01:18:51;2.70;;;1.90;;
2488;SDS011;1255;48.716;9.124;2022-11-15T01:21:19;2.53;;;1.80;;
2488;SDS011;1255;48.716;9.124;2022-11-15T01:23:46;2.60;;;2.40;;
2488;SDS011;1255;48.716;9.124;2022-11-15T01:26:14;2.05;;;1.85;;
2488;SDS011;1255;48.716;9.124;2022-11-15T01:28:41;1.73;;;1.60;;
2488;SDS011;1255;48.716;9.124;2022-11-15T01:31:09;2.55;;;2.35;;
2488;SDS011;1255;48.716;9.124;2022-11-15T01:33:38;2.13;;;1.92;;
2488;SDS011;1255;48.716;9.124;2022-11-15T01:36:05;1.77;;;1.67;;
2488;SDS011;1255;48.716;9.124;2022-11-15T01:38:38;2.50;;;2.00;;
2488;SDS011;1255;48.716;9.124;2022-11-15T01:41:05;1.73;;;1.63;;
2488;SDS011;1255;48.716;9.124;2022-11-15T01:43:33;3.15;;;2.70;;
2488;SDS011;1255;48.716;9.124;2022-11-15T01:46:05;2.83;;;2.38;;
2488;SDS011;1255;48.716;9.124;2022-11-15T01:48:39;2.95;;;2.30;;
2488;SDS011;1255;48.716;9.124;2022-11-15T01:51:08;3.03;;;2.70;;
2488;SDS011;1255;48.716;9.124;2022-11-15T01:53:40;5.90;;;2.38;;
2488;SDS011;1255;48.716;9.124;2022-11-15T01:56:11;4.72;;;2.35;;
2488;SDS011;1255;48.716;9.124;2022-11-15T01:58:42;3.50;;;2.30;;
2488;SDS011;1255;48.716;9.124;2022-11-15T02:01:27;2.72;;;2.08;;
2488;SDS011;1255;48.716;9.124;2022-11-15T02:04:05;1.80;;;1.70;;
2488;SDS011;1255;48.716;9.124;2022-11-15T02:06:38;2.33;;;2.13;;
2488;SDS011;1255;48.716;9.124;2022-11-15T02:09:09;2.97;;;2.28;;
2488;SDS011;1255;48.716;9.124;2022-11-15T02:11:36;3.83;;;2.28;;
2488;SDS011;1255;48.716;9.124;2022-11-15T02:14:04;4.55;;;2.50;;
2488;SDS011;1255;48.716;9.124;2022-11-15T02:16:34;2.65;;;2.20;;
2488;SDS011;1255;48.716;9.124;2022-11-15T02:19:19;2.25;;;2.00;;
2488;SDS011;1255;48.716;9.124;2022-11-15T02:22:04;3.20;;;2.50;;
2488;SDS011;1255;48.716;9.124;2022-11-15T02:25:05;2.67;;;2.03;;
2488;SDS011;1255;48.716;9.124;2022-11-15T02:28:04;5.10;;;2.80;;
2488;SDS011;1255;48.716;9.124;2022-11-15T02:30:59;1.95;;;1.85;;
2488;SDS011;1255;48.716;9.124;2022-11-15T02:33:34;2.30;;;1.80;;
2488;SDS011;1255;48.716;9.124;2022-11-15T02:36:09;2.28;;;2.08;;
2488;SDS011;1255;48.716;9.124;2022-11-15T02:38:44;2.25;;;1.95;;
2488;SDS011;1255;48.716;9.124;2022-11-15T02:41:22;2.13;;;1.92;;
2488;SDS011;1255;48.716;9.124;2022-11-15T02:43:59;3.17;;;2.35;;
2488;SDS011;1255;48.716;9.124;2022-11-15T02:46:33;2.50;;;1.92;;
2488;SDS011;1255;48.716;9.124;2022-11-15T02:49:23;2.30;;;2.10;;
2488;SDS011;1255;48.716;9.124;2022-11-15T02:51:56;2.53;;;2.00;;
2488;SDS011;1255;48.716;9.124;2022-11-15T02:54:26;3.08;;;1.98;;
2488;SDS011;1255;48.716;9.124;2022-11-15T02:57:27;2.22;;;1.90;;
2488;SDS011;1255;48.716;9.124;2022-11-15T03:00:15;2.45;;;2.25;;
2488;SDS011;1255;48.716;9.124;2022-11-15T03:03:00;2.13;;;1.88;;
2488;SDS011;1255;48.716;9.124;2022-11-15T03:05:50;2.63;;;2.17;;
2488;SDS011;1255;48.716;9.124;2022-11-15T03:08:26;2.05;;;1.83;;
2488;SDS011;1255;48.716;9.124;2022-11-15T03:11:00;2.47;;;1.98;;
2488;SDS011;1255;48.716;9.124;2022-11-15T03:13:36;1.85;;;1.70;;
2488;SDS011;1255;48.716;9.124;2022-11-15T03:16:06;2.42;;;2.22;;
2488;SDS011;1255;48.716;9.124;2022-11-15T03:18:41;2.50;;;1.95;;
2488;SDS011;1255;48.716;9.124;2022-11-15T03:21:13;3.28;;;2.13;;
2488;SDS011;1255;48.716;9.124;2022-11-15T03:23:42;2.20;;;2.00;;
2488;SDS011;1255;48.716;9.124;2022-11-15T03:26:11;2.10;;;1.90;;
2488;SDS011;1255;48.716;9.124;2022-11-15T03:28:41;2.67;;;1.80;;
2488;SDS011;1255;48.716;9.124;2022-11-15T03:31:13;2.20;;;1.98;;
2488;SDS011;1255;48.716;9.124;2022-11-15T03:33:59;4.03;;;2.50;;
2488;SDS011;1255;48.716;9.124;2022-11-15T03:36:30;3.75;;;2.85;;
2488;SDS011;1255;48.716;9.124;2022-11-15T03:39:00;2.00;;;1.90;;
2488;SDS011;1255;48.716;9.124;2022-11-15T03:41:33;2.60;;;2.08;;
2488;SDS011;1255;48.716;9.124;2022-11-15T03:44:04;2.30;;;2.10;;
2488;SDS011;1255;48.716;9.124;2022-11-15T03:46:40;2.83;;;2.33;;
2488;SDS011;1255;48.716;9.124;2022-11-15T03:49:15;3.63;;;1.77;;
2488;SDS011;1255;48.716;9.124;2022-11-15T03:51:45;2.55;;;1.90;;
2488;SDS011;1255;48.716;9.124;2022-11-15T03:54:12;2.95;;;1.85;;
2488;SDS011;1255;48.716;9.124;2022-11-15T03:56:40;2.20;;;2.00;;
2488;SDS011;1255;48.716;9.124;2022-11-15T03:59:06;2.30;;;1.85;;
2488;SDS011;1255;48.716;9.124;2022-11-15T04:01:33;3.65;;;2.40;;
2488;SDS011;1255;48.716;9.124;2022-11-15T04:04:00;1.98;;;1.77;;
2488;SDS011;1255;48.716;9.124;2022-11-15T04:06:28;4.88;;;2.00;;
2488;SDS011;1255;48.716;9.124;2022-11-15T04:08:55;2.28;;;2.00;;
2488;SDS011;1255;48.716;9.124;2022-11-15T04:11:21;1.70;;;1.52;;
2488;SDS011;1255;48.716;9.124;2022-11-15T04:13:48;2.40;;;2.20;;
2488;SDS011;1255;48.716;9.124;2022-11-15T04:16:15;2.30;;;2.10;;
2488;SDS011;1255;48.716;9.124;2022-11-15T04:18:42;2.10;;;1.90;;
2488;SDS011;1255;48.716;9.124;2022-11-15T04:21:08;1.65;;;1.55;;
2488;SDS011;1255;48.716;9.124;2022-11-15T04:23:54;2.65;;;1.95;;
2488;SDS011;1255;48.716;9.124;2022-11-15T04:26:39;3.42;;;1.90;;
2488;SDS011;1255;48.716;9.124;2022-11-15T04:29:05;4.28;;;1.92;;
2488;SDS011;1255;48.716;9.124;2022-11-15T04:31:49;2.10;;;1.88;;
2488;SDS011;1255;48.716;9.124;2022-11-15T04:34:16;2.05;;;1.85;;
2488;SDS011;1255;48.716;9.124;2022-11-15T04:36:43;2.47;;;1.83;;
2488;SDS011;1255;48.716;9.124;2022-11-15T04:39:28;3.05;;;2.05;;
2488;SDS011;1255;48.716;9.124;2022-11-15T04:41:55;4.50;;;1.70;;
2488;SDS011;1255;48.716;9.124;2022-11-15T04:44:22;2.33;;;1.90;;
2488;SDS011;1255;48.716;9.124;2022-11-15T04:46:48;2.33;;;2.10;;
2488;SDS011;1255;48.716;9.124;2022-11-15T04:49:15;2.17;;;1.98;;
2488;SDS011;1255;48.716;9.124;2022-11-15T04:51:42;2.80;;;2.08;;
2488;SDS011;1255;48.716;9.124;2022-11-15T04:54:09;2.55;;;1.95;;
2488;SDS011;1255;48.716;9.124;2022-11-15T04:56:37;2.00;;;1.80;;
2488;SDS011;1255;48.716;9.124;2022-11-15T04:59:04;2.72;;;1.98;;
2488;SDS011;1255;48.716;9.124;2022-11-15T05:01:30;2.00;;;1.80;;
2488;SDS011;1255;48.716;9.124;2022-11-15T05:03:57;2.45;;;1.95;;
2488;SDS011;1255;48.716;9.124;2022-11-15T05:06:41;2.95;;;2.20;;
2488;SDS011;1255;48.716;9.124;2022-11-15T05:09:08;3.65;;;1.85;;
2488;SDS011;1255;48.716;9.124;2022-11-15T05:11:36;2.58;;;2.38;;
2488;SDS011;1255;48.716;9.124;2022-11-15T05:14:03;3.13;;;2.05;;
2488;SDS011;1255;48.716;9.124;2022-11-15T05:16:30;2.65;;;2.40;;
2488;SDS011;1255;48.716;9.124;2022-11-15T05:18:56;4.57;;;2.20;;
2488;SDS011;1255;48.716;9.124;2022-11-15T05:21:23;2.92;;;2.63;;
2488;SDS011;1255;48.716;9.124;2022-11-15T05:23:50;3.83;;;2.85;;
2488;SDS011;1255;48.716;9.124;2022-11-15T05:26:17;2.67;;;2.47;;
2488;SDS011;1255;48.716;9.124;2022-11-15T05:28:46;2.72;;;2.53;;
2488;SDS011;1255;48.716;9.124;2022-11-15T05:31:13;3.13;;;2.70;;
2488;SDS011;1255;48.716;9.124;2022-11-15T05:33:41;3.42;;;3.03;;
2488;SDS011;1255;48.716;9.124;2022-11-15T05:36:09;3.33;;;2.60;;
2488;SDS011;1255;48.716;9.124;2022-11-15T05:38:41;3.65;;;2.47;;
2488;SDS011;1255;48.716;9.124;2022-11-15T05:41:08;4.72;;;2.45;;
2488;SDS011;1255;48.716;9.124;2022-11-15T05:43:35;4.32;;;2.38;;
2488;SDS011;1255;48.716;9.124;2022-11-15T05:46:06;2.20;;;1.75;;
2488;SDS011;1255;48.716;9.124;2022-11-15T05:48:33;2.63;;;1.90;;
2488;SDS011;1255;48.716;9.124;2022-11-15T05:51:02;3.05;;;2.67;;
2488;SDS011;1255;48.716;9.124;2022-11-15T05:53:30;2.90;;;2.60;;
2488;SDS011;1255;48.716;9.124;2022-11-15T05:55:57;3.20;;;2.70;;
2488;SDS011;1255;48.716;9.124;2022-11-15T05:58:24;3.25;;;2.55;;
2488;SDS011;1255;48.716;9.124;2022-11-15T06:00:51;3.45;;;2.63;;
2488;SDS011;1255;48.716;9.124;2022-11-15T06:03:19;2.90;;;2.70;;
2488;SDS011;1255;48.716;9.124;2022-11-15T06:05:46;3.05;;;2.80;;
2488;SDS011;1255;48.716;9.124;2022-11-15T06:08:13;3.97;;;2.90;;
2488;SDS011;1255;48.716;9.124;2022-11-15T06:10:39;2.90;;;2.50;;
2488;SDS011;1255;48.716;9.124;2022-11-15T06:13:06;3.00;;;2.70;;
2488;SDS011;1255;48.716;9.124;2022-11-15T06:15:33;3.28;;;2.97;;
2488;SDS011;1255;48.716;9.124;2022-11-15T06:18:00;3.58;;;3.00;;
2488;SDS011;1255;48.716;9.124;2022-11-15T06:20:29;6.15;;;3.63;;
2488;SDS011;1255;48.716;9.124;2022-11-15T06:22:56;3.80;;;3.50;;
2488;SDS011;1255;48.716;9.124;2022-11-15T06:25:24;3.80;;;3.25;;
2488;SDS011;1255;48.716;9.124;2022-11-15T06:27:51;2.92;;;2.72;;
2488;SDS011;1255;48.716;9.124;2022-11-15T06:30:18;2.90;;;2.50;;
2488;SDS011;1255;48.716;9.124;2022-11-15T06:32:45;5.32;;;3.33;;
2488;SDS011;1255;48.716;9.124;2022-11-15T06:35:12;5.07;;;3.65;;
2488;SDS011;1255;48.716;9.124;2022-11-15T06:37:40;3.42;;;2.67;;
2488;SDS011;1255;48.716;9.124;2022-11-15T06:40:08;3.20;;;2.65;;
2488;SDS011;1255;48.716;9.124;2022-11-15T06:42:35;3.22;;;2.83;;
2488;SDS011;1255;48.716;9.124;2022-11-15T06:45:02;3.80;;;3.20;;
2488;SDS011;1255;48.716;9.124;2022-11-15T06:47:29;2.90;;;2.63;;
2488;SDS011;1255;48.716;9.124;2022-11-15T06:49:56;3.13;;;2.83;;
2488;SDS011;1255;48.716;9.124;2022-11-15T06:52:23;3.67;;;2.85;;
2488;SDS011;1255;48.716;9.124;2022-11-15T06:54:54;3.50;;;2.40;;
2488;SDS011;1255;48.716;9.124;2022-11-15T06:57:21;3.40;;;2.90;;
2488;SDS011;1255;48.716;9.124;2022-11-15T06:59:48;2.67;;;2.47;;
2488;SDS011;1255;48.716;9.124;2022-11-15T07:02:14;3.20;;;2.83;;
2488;SDS011;1255;48.716;9.124;2022-11-15T07:04:41;3.30;;;2.40;;
2488;SDS011;1255;48.716;9.124;2022-11-15T07:07:08;3.63;;;2.65;;
2488;SDS011;1255;48.716;9.124;2022-11-15T07:09:35;4.22;;;2.80;;
2488;SDS011;1255;48.716;9.124;2022-11-15T07:12:03;2.85;;;2.65;;
2488;SDS011;1255;48.716;9.124;2022-11-15T07:14:31;2.70;;;2.33;;
2488;SDS011;1255;48.716;9.124;2022-11-15T07:16:58;2.75;;;2.55;;
2488;SDS011;1255;48.716;9.124;2022-11-15T07:19:24;3.75;;;2.28;;
2488;SDS011;1255;48.716;9.124;2022-11-15T07:21:51;2.85;;;2.50;;
2488;SDS011;1255;48.716;9.124;2022-11-15T07:24:18;2.80;;;2.50;;
2488;SDS011;1255;48.716;9.124;2022-11-15T07:26:44;2.45;;;2.25;;
2488;SDS011;1255;48.716;9.124;2022-11-15T07:29:13;3.20;;;2.90;;
2488;SDS011;1255;48.716;9.124;2022-11-15T07:31:39;4.38;;;2.60;;
2488;SDS011;1255;48.716;9.124;2022-11-15T07:34:06;3.72;;;2.83;;
2488;SDS011;1255;48.716;9.124;2022-11-15T07:36:33;4.07;;;2.60;;
2488;SDS011;1255;48.716;9.124;2022-11-15T07:39:00;3.00;;;2.70;;
2488;SDS011;1255;48.716;9.124;2022-11-15T07:41:27;5.30;;;2.85;;
2488;SDS011;1255;48.716;9.124;2022-11-15T07:43:54;2.67;;;2.38;;
2488;SDS011;1255;48.716;9.124;2022-11-15T07:46:23;2.67;;;2.20;;
2488;SDS011;1255;48.716;9.124;2022-11-15T07:48:50;3.13;;;2.85;;
2488;SDS011;1255;48.716;9.124;2022-11-15T07:51:17;4.22;;;3.13;;
2488;SDS011;1255;48.716;9.124;2022-11-15T07:53:44;3.53;;;2.90;;
2488;SDS011;1255;48.716;9.124;2022-11-15T07:56:11;5.70;;;3.10;;
2488;SDS011;1255;48.716;9.124;2022-11-15T07:58:38;3.00;;;2.70;;
2488;SDS011;1255;48.716;9.124;2022-11-15T08:01:05;3.75;;;2.70;;
2488;SDS011;1255;48.716;9.124;2022-11-15T08:03:33;4.45;;;3.25;;
2488;SDS011;1255;48.716;9.124;2022-11-15T08:06:01;2.88;;;2.67;;
2488;SDS011;1255;48.716;9.124;2022-11-15T08:08:28;3.70;;;2.85;;
2488;SDS011;1255;48.716;9.124;2022-11-15T08:10:56;4.60;;;2.63;;
2488;SDS011;1255;48.716;9.124;2022-11-15T08:13:23;3.55;;;2.67;;
2488;SDS011;1255;48.716;9.124;2022-11-15T08:15:50;2.53;;;2.30;;
2488;SDS011;1255;48.716;9.124;2022-11-15T08:18:17;3.13;;;2.50;;
2488;SDS011;1255;48.716;9.124;2022-11-15T08:20:45;2.72;;;2.13;;
2488;SDS011;1255;48.716;9.124;2022-11-15T08:23:11;2.67;;;2.10;;
2488;SDS011;1255;48.716;9.124;2022-11-15T08:25:38;5.90;;;2.25;;
2488;SDS011;1255;48.716;9.124;2022-11-15T08:28:06;2.72;;;2.53;;
2488;SDS011;1255;48.716;9.124;2022-11-15T08:30:35;2.38;;;2.17;;
2488;SDS011;1255;48.716;9.124;2022-11-15T08:33:03;2.85;;;1.77;;
2488;SDS011;1255;48.716;9.124;2022-11-15T08:35:30;3.28;;;2.17;;
2488;SDS011;1255;48.716;9.124;2022-11-15T08:37:58;2.17;;;1.80;;
2488;SDS011;1255;48.716;9.124;2022-11-15T08:40:25;4.22;;;1.70;;
2488;SDS011;1255;48.716;9.124;2022-11-15T08:42:52;2.10;;;1.90;;
2488;SDS011;1255;48.716;9.124;2022-11-15T08:45:19;2.30;;;1.97;;
2488;SDS011;1255;48.716;9.124;2022-11-15T08:47:46;2.77;;;1.97;;
2488;SDS011;1255;48.716;9.124;2022-11-15T08:50:13;3.73;;;2.23;;
2488;SDS011;1255;48.716;9.124;2022-11-15T08:52:40;3.47;;;3.17;;
2488;SDS011;1255;48.716;9.124;2022-11-15T08:55:08;2.77;;;2.03;;
2488;SDS011;1255;48.716;9.124;2022-11-15T08:57:35;2.07;;;1.87;;
2488;SDS011;1255;48.716;9.124;2022-11-15T09:00:03;2.40;;;2.20;;
2488;SDS011;1255;48.716;9.124;2022-11-15T09:02:31;3.20;;;2.07;;
2488;SDS011;1255;48.716;9.124;2022-11-15T09:04:58;2.70;;;1.77;;
2488;SDS011;1255;48.716;9.124;2022-11-15T09:07:26;2.10;;;1.90;;
2488;SDS011;1255;48.716;9.124;2022-11-15T09:09:54;2.83;;;2.20;;
2488;SDS011;1255;48.716;9.124;2022-11-15T09:12:23;2.30;;;1.87;;
2488;SDS011;1255;48.716;9.124;2022-11-15T09:14:50;3.10;;;2.30;;
2488;SDS011;1255;48.716;9.124;2022-11-15T09:17:17;3.20;;;1.90;;
2488;SDS011;1255;48.716;9.124;2022-11-15T09:19:44;2.30;;;2.10;;
2488;SDS011;1255;48.716;9.124;2022-11-15T09:22:11;1.60;;;1.50;;
2488;SDS011;1255;48.716;9.124;2022-11-15T09:24:37;2.00;;;1.80;;
2488;SDS011;1255;48.716;9.124;2022-11-15T09:27:04;2.20;;;2.00;;
2488;SDS011;1255;48.716;9.124;2022-11-15T09:29:35;2.10;;;1.90;;
2488;SDS011;1255;48.716;9.124;2022-11-15T09:32:02;2.93;;;1.37;;
2488;SDS011;1255;48.716;9.124;2022-11-15T09:34:29;2.20;;;1.83;;
2488;SDS011;1255;48.716;9.124;2022-11-15T09:36:55;3.00;;;1.67;;
2488;SDS011;1255;48.716;9.124;2022-11-15T09:39:22;1.60;;;1.50;;
2488;SDS011;1255;48.716;9.124;2022-11-15T09:44:55;2.80;;;1.60;;
2488;SDS011;1255;48.716;9.124;2022-11-15T09:50:28;1.80;;;1.70;;
2488;SDS011;1255;48.716;9.124;2022-11-15T09:53:00;1.80;;;1.60;;
2488;SDS011;1255;48.716;9.124;2022-11-15T09:55:43;2.07;;;1.87;;
2488;SDS011;1255;48.716;9.124;2022-11-15T09:58:16;2.13;;;1.37;;
2488;SDS011;1255;48.716;9.124;2022-11-15T10:00:52;2.60;;;1.67;;
2488;SDS011;1255;48.716;9.124;2022-11-15T10:03:22;2.20;;;1.87;;
2488;SDS011;1255;48.716;9.124;2022-11-15T10:05:54;1.83;;;1.70;;
2488;SDS011;1255;48.716;9.124;2022-11-15T10:11:15;5.20;;;1.90;;
2488;SDS011;1255;48.716;9.124;2022-11-15T10:13:45;2.40;;;1.80;;
2488;SDS011;1255;48.716;9.124;2022-11-15T10:16:20;2.00;;;1.80;;
2488;SDS011;1255;48.716;9.124;2022-11-15T10:19:19;1.50;;;1.37;;
2488;SDS011;1255;48.716;9.124;2022-11-15T10:21:54;1.63;;;1.53;;
2488;SDS011;1255;48.716;9.124;2022-11-15T10:24:30;2.67;;;1.37;;
2488;SDS011;1255;48.716;9.124;2022-11-15T10:27:03;1.20;;;1.10;;
2488;SDS011;1255;48.716;9.124;2022-11-15T10:29:36;2.07;;;1.70;;
2488;SDS011;1255;48.716;9.124;2022-11-15T10:32:11;2.53;;;1.67;;
2488;SDS011;1255;48.716;9.124;2022-11-15T10:34:39;1.63;;;1.40;;
2488;SDS011;1255;48.716;9.124;2022-11-15T10:37:06;1.93;;;1.37;;
2488;SDS011;1255;48.716;9.124;2022-11-15T10:39:43;1.70;;;1.60;;
2488;SDS011;1255;48.716;9.124;2022-11-15T10:42:42;1.73;;;1.50;;
2488;SDS011;1255;48.716;9.124;2022-11-15T10:45:22;1.47;;;1.33;;
2488;SDS011;1255;48.716;9.124;2022-11-15T10:47:52;1.50;;;1.40;;
2488;SDS011;1255;48.716;9.124;2022-11-15T10:50:26;1.93;;;1.27;;
2488;SDS011;1255;48.716;9.124;2022-11-15T10:52:55;2.90;;;1.53;;
2488;SDS011;1255;48.716;9.124;2022-11-15T10:55:26;2.30;;;1.30;;
2488;SDS011;1255;48.716;9.124;2022-11-15T10:57:58;1.87;;;1.70;;
2488;SDS011;1255;48.716;9.124;2022-11-15T11:00:31;2.73;;;1.80;;
2488;SDS011;1255;48.716;9.124;2022-11-15T11:03:02;4.03;;;1.53;;
2488;SDS011;1255;48.716;9.124;2022-11-15T11:05:32;2.50;;;1.90;;
2488;SDS011;1255;48.716;9.124;2022-11-15T11:08:02;2.27;;;1.73;;
2488;SDS011;1255;48.716;9.124;2022-11-15T11:10:30;1.83;;;1.67;;
2488;SDS011;1255;48.716;9.124;2022-11-15T11:13:11;1.63;;;1.53;;
2488;SDS011;1255;48.716;9.124;2022-11-15T11:15:39;2.10;;;1.80;;
2488;SDS011;1255;48.716;9.124;2022-11-15T11:18:15;2.70;;;1.97;;
2488;SDS011;1255;48.716;9.124;2022-11-15T11:20:49;2.67;;;2.00;;
2488;SDS011;1255;48.716;9.124;2022-11-15T11:23:33;1.40;;;1.30;;
2488;SDS011;1255;48.716;9.124;2022-11-15T11:26:11;2.03;;;1.60;;
2488;SDS011;1255;48.716;9.124;2022-11-15T11:28:54;1.70;;;1.43;;
2488;SDS011;1255;48.716;9.124;2022-11-15T11:31:28;3.77;;;1.80;;
2488;SDS011;1255;48.716;9.124;2022-11-15T11:34:04;1.67;;;1.50;;
2488;SDS011;1255;48.716;9.124;2022-11-15T11:36:42;3.33;;;2.30;;
2488;SDS011;1255;48.716;9.124;2022-11-15T11:39:20;3.10;;;1.77;;
2488;SDS011;1255;48.716;9.124;2022-11-15T11:41:56;1.80;;;1.57;;
2488;SDS011;1255;48.716;9.124;2022-11-15T11:44:32;1.40;;;1.10;;
2488;SDS011;1255;48.716;9.124;2022-11-15T11:47:03;3.00;;;1.70;;
2488;SDS011;1255;48.716;9.124;2022-11-15T11:49:38;1.70;;;1.50;;
2488;SDS011;1255;48.716;9.124;2022-11-15T11:52:12;1.90;;;1.70;;
2488;SDS011;1255;48.716;9.124;2022-11-15T11:54:46;2.23;;;1.70;;
2488;SDS011;1255;48.716;9.124;2022-11-15T11:57:22;1.50;;;1.37;;
2488;SDS011;1255;48.716;9.124;2022-11-15T11:59:58;3.10;;;1.60;;
2488;SDS011;1255;48.716;9.124;2022-11-15T12:02:29;1.80;;;1.53;;
2488;SDS011;1255;48.716;9.124;2022-11-15T12:05:07;2.87;;;1.63;;
2488;SDS011;1255;48.716;9.124;2022-11-15T12:07:39;1.70;;;1.40;;
2488;SDS011;1255;48.716;9.124;2022-11-15T12:10:14;1.80;;;1.30;;
2488;SDS011;1255;48.716;9.124;2022-11-15T12:12:48;1.90;;;1.60;;
2488;SDS011;1255;48.716;9.124;2022-11-15T12:15:20;1.93;;;1.53;;
2488;SDS011;1255;48.716;9.124;2022-11-15T12:17:50;1.57;;;1.40;;
2488;SDS011;1255;48.716;9.124;2022-11-15T12:20:19;1.40;;;1.30;;
2488;SDS011;1255;48.716;9.124;2022-11-15T12:22:49;1.73;;;1.53;;
2488;SDS011;1255;48.716;9.124;2022-11-15T12:25:22;1.27;;;1.17;;
2488;SDS011;1255;48.716;9.124;2022-11-15T12:27:54;1.43;;;1.30;;
2488;SDS011;1255;48.716;9.124;2022-11-15T12:30:25;2.17;;;1.40;;
2488;SDS011;1255;48.716;9.124;2022-11-15T12:33:02;1.90;;;1.40;;
2488;SDS011;1255;48.716;9.124;2022-11-15T12:35:33;1.80;;;1.63;;
2488;SDS011;1255;48.716;9.124;2022-11-15T12:38:03;1.50;;;1.17;;
2488;SDS011;1255;48.716;9.124;2022-11-15T12:40:35;2.17;;;1.50;;
2488;SDS011;1255;48.716;9.124;2022-11-15T12:43:04;3.23;;;1.37;;
2488;SDS011;1255;48.716;9.124;2022-11-15T12:45:56;2.30;;;1.40;;
2488;SDS011;1255;48.716;9.124;2022-11-15T12:48:46;1.90;;;1.30;;
2488;SDS011;1255;48.716;9.124;2022-11-15T12:51:18;1.83;;;1.40;;
2488;SDS011;1255;48.716;9.124;2022-11-15T12:53:46;4.30;;;2.33;;
2488;SDS011;1255;48.716;9.124;2022-11-15T12:56:23;2.17;;;1.57;;
2488;SDS011;1255;48.716;9.124;2022-11-15T12:58:52;1.80;;;1.57;;
2488;SDS011;1255;48.716;9.124;2022-11-15T13:04:23;2.17;;;1.90;;
2488;SDS011;1255;48.716;9.124;2022-11-15T13:06:55;1.40;;;1.30;;
2488;SDS011;1255;48.716;9.124;2022-11-15T13:15:30;1.20;;;1.10;;
2488;SDS011;1255;48.716;9.124;2022-11-15T13:18:15;1.67;;;1.57;;
2488;SDS011;1255;48.716;9.124;2022-11-15T13:20:57;2.20;;;1.60;;
2488;SDS011;1255;48.716;9.124;2022-11-15T13:23:26;3.60;;;1.57;;
2488;SDS011;1255;48.716;9.124;2022-11-15T13:26:03;2.03;;;1.87;;
2488;SDS011;1255;48.716;9.124;2022-11-15T13:28:39;2.63;;;1.60;;
2488;SDS011;1255;48.716;9.124;2022-11-15T13:33:57;2.03;;;1.20;;
2488;SDS011;1255;48.716;9.124;2022-11-15T13:36:28;2.17;;;1.80;;
2488;SDS011;1255;48.716;9.124;2022-11-15T13:39:00;1.77;;;1.47;;
2488;SDS011;1255;48.716;9.124;2022-11-15T13:41:28;2.30;;;1.90;;
2488;SDS011;1255;48.716;9.124;2022-11-15T13:43:57;1.57;;;1.40;;
2488;SDS011;1255;48.716;9.124;2022-11-15T13:46:25;1.60;;;1.50;;
2488;SDS011;1255;48.716;9.124;2022-11-15T13:48:54;1.93;;;1.73;;
2488;SDS011;1255;48.716;9.124;2022-11-15T13:51:29;2.53;;;2.10;;
2488;SDS011;1255;48.716;9.124;2022-11-15T13:54:03;3.45;;;2.55;;
2488;SDS011;1255;48.716;9.124;2022-11-15T13:56:39;3.67;;;3.13;;
2488;SDS011;1255;48.716;9.124;2022-11-15T13:59:10;3.50;;;3.30;;
2488;SDS011;1255;48.716;9.124;2022-11-15T14:01:41;3.83;;;3.27;;
2488;SDS011;1255;48.716;9.124;2022-11-15T14:04:11;3.73;;;3.43;;
2488;SDS011;1255;48.716;9.124;2022-11-15T14:06:44;4.43;;;3.27;;
2488;SDS011;1255;48.716;9.124;2022-11-15T14:14:58;4.67;;;3.30;;
2488;SDS011;1255;48.716;9.124;2022-11-15T14:17:33;5.00;;;3.70;;
2488;SDS011;1255;48.716;9.124;2022-11-15T14:20:02;3.35;;;2.97;;
2488;SDS011;1255;48.716;9.124;2022-11-15T14:22:50;3.77;;;3.37;;
2488;SDS011;1255;48.716;9.124;2022-11-15T14:25:19;4.13;;;3.40;;
2488;SDS011;1255;48.716;9.124;2022-11-15T14:30:41;3.50;;;3.20;;
2488;SDS011;1255;48.716;9.124;2022-11-15T14:33:17;3.93;;;3.33;;
2488;SDS011;1255;48.716;9.124;2022-11-15T14:35:49;3.58;;;3.25;;
2488;SDS011;1255;48.716;9.124;2022-11-15T14:38:16;6.97;;;4.17;;
2488;SDS011;1255;48.716;9.124;2022-11-15T14:40:44;5.53;;;3.65;;
2488;SDS011;1255;48.716;9.124;2022-11-15T14:43:11;3.77;;;3.30;;
2488;SDS011;1255;48.716;9.124;2022-11-15T14:45:38;7.13;;;3.58;;
2488;SDS011;1255;48.716;9.124;2022-11-15T14:48:05;4.80;;;3.63;;
2488;SDS011;1255;48.716;9.124;2022-11-15T14:50:32;7.60;;;4.17;;
2488;SDS011;1255;48.716;9.124;2022-11-15T14:53:00;5.20;;;4.03;;
2488;SDS011;1255;48.716;9.124;2022-11-15T14:55:28;6.27;;;4.73;;
2488;SDS011;1255;48.716;9.124;2022-11-15T14:57:58;7.30;;;3.90;;
2488;SDS011;1255;48.716;9.124;2022-11-15T15:00:27;7.55;;;4.20;;
2488;SDS011;1255;48.716;9.124;2022-11-15T15:02:54;6.23;;;4.43;;
2488;SDS011;1255;48.716;9.124;2022-11-15T15:05:22;5.88;;;3.80;;
2488;SDS011;1255;48.716;9.124;2022-11-15T15:07:52;4.93;;;3.65;;
2488;SDS011;1255;48.716;9.124;2022-11-15T15:10:18;3.65;;;3.33;;
2488;SDS011;1255;48.716;9.124;2022-11-15T15:12:46;4.10;;;3.70;;
2488;SDS011;1255;48.716;9.124;2022-11-15T15:15:16;4.33;;;3.27;;
2488;SDS011;1255;48.716;9.124;2022-11-15T15:17:45;5.17;;;4.13;;
2488;SDS011;1255;48.716;9.124;2022-11-15T15:20:12;5.23;;;3.37;;
2488;SDS011;1255;48.716;9.124;2022-11-15T15:22:38;3.73;;;3.43;;
2488;SDS011;1255;48.716;9.124;2022-11-15T15:25:20;3.90;;;3.50;;
2488;SDS011;1255;48.716;9.124;2022-11-15T15:27:48;4.40;;;3.70;;
2488;SDS011;1255;48.716;9.124;2022-11-15T15:30:17;3.50;;;3.20;;
2488;SDS011;1255;48.716;9.124;2022-11-15T15:32:43;5.10;;;3.47;;
2488;SDS011;1255;48.716;9.124;2022-11-15T15:35:11;4.15;;;3.75;;
2488;SDS011;1255;48.716;9.124;2022-11-15T15:37:39;4.03;;;3.60;;
2488;SDS011;1255;48.716;9.124;2022-11-15T15:40:10;6.88;;;3.35;;
2488;SDS011;1255;48.716;9.124;2022-11-15T15:42:40;4.40;;;3.42;;
2488;SDS011;1255;48.716;9.124;2022-11-15T15:45:07;4.40;;;3.75;;
2488;SDS011;1255;48.716;9.124;2022-11-15T15:47:36;3.45;;;3.15;;
2488;SDS011;1255;48.716;9.124;2022-11-15T15:50:03;3.65;;;3.10;;
2488;SDS011;1255;48.716;9.124;2022-11-15T15:52:38;5.63;;;3.80;;
2488;SDS011;1255;48.716;9.124;2022-11-15T15:55:05;4.13;;;3.72;;
2488;SDS011;1255;48.716;9.124;2022-11-15T15:57:32;4.80;;;3.97;;
2488;SDS011;1255;48.716;9.124;2022-11-15T15:59:59;3.97;;;3.58;;
2488;SDS011;1255;48.716;9.124;2022-11-15T16:02:25;4.70;;;4.10;;
2488;SDS011;1255;48.716;9.124;2022-11-15T16:04:53;6.22;;;4.50;;